createdAt,value
2019-03-23T00:02:27.715Z,100.90
2019-03-23T00:04:56.172Z,99.07
2019-03-23T00:07:24.613Z,106.63
2019-03-23T00:09:53.066Z,98.33
2019-03-23T00:12:21.565Z,109.97
2019-03-23T00:14:50.034Z,103.25
2019-03-23T00:17:18.474Z,104.05
2019-03-23T00:19:46.943Z,103.90
2019-03-23T00:22:15.379Z,105.77
2019-03-23T00:24:43.822Z,107.35
2019-03-23T00:27:12.263Z,100.90
2019-03-23T00:29:41.196Z,103.27
2019-03-23T00:32:09.650Z,104.80
2019-03-23T00:34:38.101Z,105.45
2019-03-23T00:37:06.537Z,106.83
2019-03-23T00:39:34.973Z,103.83
2019-03-23T00:42:03.476Z,104.63
2019-03-23T00:44:31.927Z,104.90
2019-03-23T00:47:00.362Z,101.65
2019-03-23T00:49:28.813Z,101.83
2019-03-23T00:51:57.241Z,107.22
2019-03-23T00:54:25.688Z,107.83
2019-03-23T00:56:54.123Z,108.70
2019-03-23T00:59:22.574Z,112.25
2019-03-23T01:01:51.006Z,109.35
2019-03-23T01:04:19.459Z,110.32
2019-03-23T01:06:51.999Z,107.15
2019-03-23T01:09:18.071Z,109.60
2019-03-23T01:11:46.528Z,107.90
2019-03-23T01:14:14.966Z,109.63
2019-03-23T01:16:43.414Z,108.12
2019-03-23T01:19:11.852Z,105.15
2019-03-23T01:21:40.334Z,108.20
2019-03-23T01:24:08.833Z,106.70
2019-03-23T01:26:37.274Z,111.30
2019-03-23T01:29:05.709Z,106.05
2019-03-23T01:31:34.160Z,106.87
2019-03-23T01:34:02.596Z,110.50
2019-03-23T01:36:31.033Z,112.85
2019-03-23T01:38:59.545Z,100.78
2019-03-23T01:41:27.990Z,105.83
2019-03-23T01:43:56.442Z,100.50
2019-03-23T01:46:24.878Z,96.32
2019-03-23T01:48:53.304Z,91.27
2019-03-23T01:51:21.736Z,87.57
2019-03-23T01:53:50.158Z,89.77
2019-03-23T01:56:18.596Z,95.90
2019-03-23T01:58:47.020Z,140.57
2019-03-23T02:01:15.465Z,132.00
2019-03-23T02:03:43.888Z,138.30
2019-03-23T02:06:12.333Z,145.05
2019-03-23T02:08:40.757Z,138.45
2019-03-23T02:11:09.188Z,139.95
2019-03-23T02:13:37.626Z,136.35
2019-03-23T02:16:06.088Z,167.65
2019-03-23T02:18:34.564Z,147.07
2019-03-23T02:21:03.168Z,193.80
2019-03-23T02:23:31.592Z,166.05
2019-03-23T02:26:00.033Z,156.03
2019-03-23T02:28:28.467Z,182.02
2019-03-23T02:30:56.901Z,240.05
2019-03-23T02:33:25.329Z,174.75
2019-03-23T02:35:53.767Z,208.45
2019-03-23T02:38:22.192Z,176.80
2019-03-23T02:40:50.634Z,158.50
2019-03-23T02:43:19.143Z,166.85
2019-03-23T02:45:47.579Z,154.03
2019-03-23T02:48:16.018Z,151.27
2019-03-23T02:50:44.468Z,152.83
2019-03-23T02:53:12.955Z,151.30
2019-03-23T02:55:41.400Z,154.63
2019-03-23T02:58:10.189Z,164.55
2019-03-23T03:00:38.657Z,152.87
2019-03-23T03:03:07.101Z,141.37
2019-03-23T03:05:35.525Z,146.37
2019-03-23T03:08:04.257Z,156.97
2019-03-23T03:10:40.661Z,145.45
2019-03-23T03:13:09.101Z,145.20
2019-03-23T03:15:37.528Z,142.30
2019-03-23T03:18:07.183Z,145.68
2019-03-23T03:20:35.608Z,149.02
2019-03-23T03:23:04.043Z,153.60
2019-03-23T03:25:32.478Z,149.85
2019-03-23T03:28:00.914Z,150.55
2019-03-23T03:30:29.387Z,152.47
2019-03-23T03:32:57.856Z,156.72
2019-03-23T03:35:26.284Z,153.32
2019-03-23T03:37:56.747Z,146.80
2019-03-23T03:40:25.448Z,153.10
2019-03-23T03:42:53.898Z,145.43
2019-03-23T03:45:27.525Z,161.80
2019-03-23T03:47:56.027Z,166.82
2019-03-23T03:50:24.461Z,169.73
2019-03-23T03:52:52.968Z,181.87
2019-03-23T03:55:21.405Z,193.20
2019-03-23T03:57:49.847Z,172.05
2019-03-23T04:00:18.462Z,176.72
2019-03-23T04:02:46.906Z,179.78
2019-03-23T04:05:16.122Z,167.57
2019-03-23T04:07:44.633Z,150.50
2019-03-23T04:10:13.068Z,159.87
2019-03-23T04:12:41.525Z,156.67
2019-03-23T04:15:10.587Z,160.72
2019-03-23T04:17:39.018Z,161.03
2019-03-23T04:20:07.994Z,164.77
2019-03-23T04:22:36.430Z,168.95
2019-03-23T04:25:06.882Z,163.37
2019-03-23T04:27:35.309Z,158.68
2019-03-23T04:30:05.643Z,153.85
2019-03-23T04:32:34.105Z,151.00
2019-03-23T04:35:02.594Z,147.65
2019-03-23T04:37:31.113Z,160.70
2019-03-23T04:39:59.565Z,150.42
2019-03-23T04:42:28.014Z,152.85
2019-03-23T04:44:56.453Z,166.47
2019-03-23T04:47:24.892Z,164.30
2019-03-23T04:49:53.332Z,171.83
2019-03-23T04:52:21.764Z,160.55
2019-03-23T04:54:50.200Z,167.10
2019-03-23T04:57:18.636Z,161.70
2019-03-23T04:59:47.118Z,160.85
2019-03-23T05:02:15.556Z,151.60
2019-03-23T05:04:44.007Z,137.45
2019-03-23T05:07:12.433Z,141.97
2019-03-23T05:09:40.870Z,126.75
2019-03-23T05:12:09.294Z,123.10
2019-03-23T05:14:37.729Z,141.75
2019-03-23T05:17:06.153Z,129.55
2019-03-23T05:19:34.584Z,129.32
2019-03-23T05:22:03.013Z,126.62
2019-03-23T05:24:31.520Z,129.32
2019-03-23T05:27:00.041Z,124.38
2019-03-23T05:29:28.533Z,119.87
2019-03-23T05:31:56.973Z,124.40
2019-03-23T05:34:25.414Z,127.72
2019-03-23T05:36:53.841Z,130.33
2019-03-23T05:39:22.297Z,134.60
2019-03-23T05:41:50.724Z,134.80
2019-03-23T05:44:19.161Z,138.22
2019-03-23T05:46:47.594Z,136.20
2019-03-23T05:49:16.045Z,127.10
2019-03-23T05:51:44.481Z,132.90
2019-03-23T05:54:12.901Z,127.82
2019-03-23T05:56:41.372Z,127.62
2019-03-23T05:59:09.853Z,131.13
2019-03-23T06:01:38.284Z,125.42
2019-03-23T06:04:06.705Z,125.65
2019-03-23T06:06:35.149Z,129.95
2019-03-23T06:09:05.145Z,132.95
2019-03-23T06:11:33.586Z,134.13
2019-03-23T06:14:02.254Z,142.65
2019-03-23T06:16:30.686Z,135.80
2019-03-23T06:18:59.194Z,129.95
2019-03-23T06:21:27.629Z,123.80
2019-03-23T06:23:56.053Z,123.62
2019-03-23T06:26:24.496Z,123.72
2019-03-23T06:28:52.943Z,137.85
2019-03-23T06:31:21.372Z,133.80
2019-03-23T06:33:49.801Z,128.78
2019-03-23T06:36:18.237Z,121.80
2019-03-23T06:38:46.660Z,122.42
2019-03-23T06:41:15.097Z,111.88
2019-03-23T06:43:43.528Z,119.05
2019-03-23T06:46:14.805Z,115.40
2019-03-23T06:48:43.256Z,108.03
2019-03-23T06:51:11.704Z,122.70
2019-03-23T06:53:40.128Z,117.85
2019-03-23T06:56:08.566Z,116.65
2019-03-23T06:58:38.583Z,121.95
2019-03-23T07:01:07.302Z,106.27
2019-03-23T07:03:35.724Z,109.72
2019-03-23T07:06:04.175Z,111.23
2019-03-23T07:08:32.674Z,108.80
2019-03-23T07:11:01.103Z,99.32
2019-03-23T07:13:29.526Z,110.57
2019-03-23T07:15:57.965Z,109.50
2019-03-23T07:18:26.405Z,102.95
2019-03-23T07:20:54.834Z,104.27
2019-03-23T07:23:23.272Z,105.70
2019-03-23T07:25:51.692Z,103.65
2019-03-23T07:28:20.129Z,103.58
2019-03-23T07:30:48.572Z,107.50
2019-03-23T07:33:17.011Z,105.70
2019-03-23T07:35:45.443Z,98.05
2019-03-23T07:38:13.865Z,95.05
2019-03-23T07:40:42.307Z,94.58
2019-03-23T07:43:10.744Z,92.80
2019-03-23T07:45:39.172Z,93.80
2019-03-23T07:48:07.616Z,89.58
2019-03-23T07:50:36.038Z,87.43
2019-03-23T07:53:04.475Z,94.47
2019-03-23T07:55:32.893Z,91.90
2019-03-23T07:58:01.356Z,94.40
2019-03-23T08:00:29.788Z,85.95
2019-03-23T08:02:58.220Z,93.10
2019-03-23T08:05:26.649Z,90.07
2019-03-23T08:07:55.072Z,85.97
2019-03-23T08:10:28.332Z,86.57
2019-03-23T08:12:56.779Z,84.60
2019-03-23T08:15:25.209Z,87.17
2019-03-23T08:17:53.703Z,82.40
2019-03-23T08:20:22.132Z,85.80
2019-03-23T08:22:50.556Z,81.87
2019-03-23T08:25:18.989Z,75.85
2019-03-23T08:27:47.418Z,72.58
2019-03-23T08:30:15.924Z,79.30
2019-03-23T08:32:44.359Z,76.22
2019-03-23T08:35:12.784Z,79.05
2019-03-23T08:37:41.220Z,78.62
2019-03-23T08:40:10.116Z,84.25
2019-03-23T08:42:38.562Z,80.03
2019-03-23T08:45:07.238Z,80.70
2019-03-23T08:47:35.673Z,79.82
2019-03-23T08:50:06.473Z,76.75
2019-03-23T08:52:34.898Z,84.03
2019-03-23T08:55:03.402Z,81.90
2019-03-23T08:57:31.842Z,76.25
2019-03-23T09:00:00.324Z,75.60
2019-03-23T09:02:28.844Z,76.97
2019-03-23T09:04:57.280Z,74.40
2019-03-23T09:07:25.701Z,78.22
2019-03-23T09:09:59.027Z,76.02
2019-03-23T09:12:24.307Z,77.95
2019-03-23T09:14:53.051Z,71.17
2019-03-23T09:17:21.505Z,73.55
2019-03-23T09:19:50.018Z,76.00
2019-03-23T09:22:18.451Z,77.78
2019-03-23T09:24:46.944Z,73.30
2019-03-23T09:27:15.408Z,75.40
2019-03-23T09:29:43.841Z,72.58
2019-03-23T09:32:12.627Z,76.90
2019-03-23T09:34:41.064Z,71.95
2019-03-23T09:37:09.494Z,73.90
2019-03-23T09:39:37.925Z,70.45
2019-03-23T09:42:07.183Z,70.28
2019-03-23T09:44:35.880Z,73.50
2019-03-23T09:47:04.406Z,74.35
2019-03-23T09:49:32.869Z,69.15
2019-03-23T09:52:01.592Z,72.65
2019-03-23T09:54:30.021Z,69.22
2019-03-23T09:56:59.579Z,72.50
2019-03-23T09:59:28.184Z,68.40
2019-03-23T10:01:56.648Z,77.12
2019-03-23T10:04:25.151Z,71.30
2019-03-23T10:06:53.614Z,67.47
2019-03-23T10:09:22.035Z,70.37
2019-03-23T10:11:53.000Z,68.87
2019-03-23T10:14:21.506Z,71.85
2019-03-23T10:16:49.954Z,70.45
2019-03-23T10:19:18.618Z,70.78
2019-03-23T10:21:47.236Z,75.10
2019-03-23T10:24:15.676Z,72.22
2019-03-23T10:26:44.115Z,76.05
2019-03-23T10:29:12.545Z,73.42
2019-03-23T10:31:40.989Z,69.80
2019-03-23T10:34:09.425Z,75.12
2019-03-23T10:36:37.869Z,74.92
2019-03-23T10:39:06.570Z,79.67
2019-03-23T10:41:35.090Z,79.80
2019-03-23T10:44:03.519Z,79.37
2019-03-23T10:46:31.971Z,77.27
2019-03-23T10:49:00.501Z,75.37
2019-03-23T10:51:28.946Z,73.95
2019-03-23T10:53:57.444Z,76.62
2019-03-23T10:56:25.966Z,78.45
2019-03-23T10:58:54.393Z,82.97
2019-03-23T11:01:22.844Z,80.47
2019-03-23T11:03:51.446Z,81.37
2019-03-23T11:06:19.891Z,72.35
2019-03-23T11:08:48.325Z,77.15
2019-03-23T11:11:16.761Z,77.62
2019-03-23T11:13:45.291Z,69.00
2019-03-23T11:16:13.861Z,72.05
2019-03-23T11:18:42.305Z,71.20
2019-03-23T11:21:30.075Z,67.10
2019-03-23T11:23:58.524Z,67.07
2019-03-23T11:26:28.162Z,75.52
2019-03-23T11:28:56.900Z,67.20
2019-03-23T11:31:25.325Z,74.50
2019-03-23T11:33:53.773Z,70.47
2019-03-23T11:36:22.230Z,73.17
2019-03-23T11:38:50.724Z,76.62
2019-03-23T11:41:19.153Z,75.07
2019-03-23T11:43:47.593Z,72.20
2019-03-23T11:46:17.073Z,72.82
2019-03-23T11:48:45.718Z,71.28
2019-03-23T11:51:14.189Z,67.60
2019-03-23T11:53:42.653Z,69.67
2019-03-23T11:56:11.073Z,63.40
2019-03-23T11:58:39.522Z,68.57
2019-03-23T12:01:07.953Z,68.75
2019-03-23T12:03:36.401Z,71.25
2019-03-23T12:06:04.831Z,68.55
2019-03-23T12:08:34.221Z,68.70
2019-03-23T12:11:03.334Z,67.87
2019-03-23T12:13:31.968Z,71.00
2019-03-23T12:16:01.243Z,71.83
2019-03-23T12:18:29.684Z,78.02
2019-03-23T12:20:58.124Z,78.15
2019-03-23T12:23:26.574Z,74.58
2019-03-23T12:25:55.122Z,79.47
2019-03-23T12:28:23.601Z,78.78
2019-03-23T12:30:52.031Z,74.10
2019-03-23T12:33:21.492Z,74.97
2019-03-23T12:35:50.081Z,77.30
2019-03-23T12:38:18.548Z,73.78
2019-03-23T12:40:46.978Z,68.72
2019-03-23T12:43:15.406Z,74.75
2019-03-23T12:45:43.916Z,66.40
2019-03-23T12:48:12.335Z,63.90
2019-03-23T12:50:41.081Z,55.38
2019-03-23T12:53:09.504Z,59.53
2019-03-23T12:55:37.969Z,56.92
2019-03-23T12:58:06.420Z,50.78
2019-03-23T13:00:34.856Z,53.43
2019-03-23T13:03:03.296Z,54.42
2019-03-23T13:05:31.736Z,49.55
2019-03-23T13:08:00.174Z,48.58
2019-03-23T13:10:28.617Z,45.30
2019-03-23T13:12:58.461Z,42.30
2019-03-23T13:15:27.092Z,43.92
2019-03-23T13:17:55.515Z,43.00
2019-03-23T13:20:24.395Z,41.07
2019-03-23T13:22:52.878Z,45.98
2019-03-23T13:25:21.312Z,40.98
2019-03-23T13:27:49.767Z,37.28
2019-03-23T13:30:18.797Z,37.73
2019-03-23T13:32:47.309Z,32.88
2019-03-23T13:35:15.799Z,29.70
2019-03-23T13:37:44.531Z,22.80
2019-03-23T13:40:13.600Z,19.52
2019-03-23T13:42:42.059Z,16.48
2019-03-23T13:45:11.025Z,18.48
2019-03-23T13:47:40.013Z,22.70
2019-03-23T13:50:10.458Z,14.53
2019-03-23T13:52:38.954Z,13.67
2019-03-23T13:55:09.598Z,15.10
2019-03-23T13:57:38.036Z,10.23
2019-03-23T14:00:08.465Z,12.65
2019-03-23T14:02:36.897Z,9.35
2019-03-23T14:05:15.726Z,11.00
2019-03-23T14:07:55.819Z,9.05
2019-03-23T14:10:24.716Z,10.72
2019-03-23T14:12:53.173Z,7.95
2019-03-23T14:15:21.605Z,11.40
2019-03-23T14:17:50.045Z,7.03
2019-03-23T14:20:18.488Z,5.97
2019-03-23T14:22:46.927Z,8.63
2019-03-23T14:25:15.417Z,6.75
2019-03-23T14:27:43.893Z,6.15
2019-03-23T14:30:12.597Z,7.92
2019-03-23T14:32:41.032Z,6.90
2019-03-23T14:35:09.481Z,6.72
2019-03-23T14:37:37.918Z,8.03
2019-03-23T14:40:06.980Z,5.33
2019-03-23T14:42:36.065Z,7.92
2019-03-23T14:45:06.241Z,7.45
2019-03-23T14:47:34.685Z,7.22
2019-03-23T14:50:03.305Z,7.70
2019-03-23T14:52:31.761Z,7.60
2019-03-23T14:55:00.315Z,6.30
2019-03-23T14:57:28.810Z,8.90
2019-03-23T14:59:57.237Z,7.95
2019-03-23T15:02:25.684Z,8.88
2019-03-23T15:04:54.118Z,8.63
2019-03-23T15:07:22.600Z,7.23
2019-03-23T15:09:51.054Z,11.30
2019-03-23T15:12:19.598Z,9.58
2019-03-23T15:14:48.050Z,10.15
2019-03-23T15:17:16.476Z,10.00
2019-03-23T15:19:44.908Z,11.15
2019-03-23T15:22:13.353Z,11.50
2019-03-23T15:24:41.975Z,9.65
2019-03-23T15:27:10.393Z,11.85
2019-03-23T15:29:38.849Z,8.77
2019-03-23T15:32:07.279Z,8.60
2019-03-23T15:34:35.743Z,12.98
2019-03-23T15:37:04.179Z,10.98
2019-03-23T15:39:32.646Z,11.30
2019-03-23T15:42:01.072Z,10.10
2019-03-23T15:44:29.534Z,10.45
2019-03-23T15:46:57.972Z,9.75
2019-03-23T15:49:26.424Z,11.97
2019-03-23T15:51:54.846Z,12.40
2019-03-23T15:54:23.285Z,11.73
2019-03-23T15:56:51.721Z,12.85
2019-03-23T15:59:20.235Z,11.95
2019-03-23T16:01:48.668Z,14.40
2019-03-23T16:04:17.152Z,10.40
2019-03-23T16:06:45.577Z,9.73
2019-03-23T16:09:13.998Z,13.27
2019-03-23T16:11:42.444Z,14.03
2019-03-23T16:14:10.880Z,13.08
2019-03-23T16:16:39.313Z,13.08
2019-03-23T16:19:07.751Z,12.27
2019-03-23T16:21:36.185Z,15.58
2019-03-23T16:24:04.616Z,16.32
2019-03-23T16:26:33.062Z,13.10
2019-03-23T16:29:01.492Z,13.23
2019-03-23T16:31:29.957Z,14.53
2019-03-23T16:33:58.432Z,13.03
2019-03-23T16:36:26.870Z,13.78
2019-03-23T16:38:55.293Z,9.93
2019-03-23T16:41:23.741Z,8.75
2019-03-23T16:43:52.180Z,13.55
2019-03-23T16:46:20.619Z,10.15
2019-03-23T16:48:49.052Z,11.17
2019-03-23T16:51:17.510Z,12.18
2019-03-23T16:53:45.941Z,13.13
2019-03-23T16:56:14.397Z,11.95
2019-03-23T16:58:42.842Z,15.43
2019-03-23T17:01:11.452Z,12.63
2019-03-23T17:03:39.886Z,11.33
2019-03-23T17:06:08.342Z,14.30
2019-03-23T17:08:36.774Z,13.53
2019-03-23T17:11:05.219Z,13.98
2019-03-23T17:13:33.638Z,18.10
2019-03-23T17:16:02.077Z,17.42
2019-03-23T17:18:30.508Z,16.80
2019-03-23T17:20:58.956Z,14.70
2019-03-23T17:23:27.379Z,13.15
2019-03-23T17:25:55.820Z,16.00
2019-03-23T17:28:24.259Z,14.15
2019-03-23T17:30:52.699Z,18.20
2019-03-23T17:33:21.125Z,15.90
2019-03-23T17:35:49.576Z,16.00
2019-03-23T17:38:18.013Z,16.73
2019-03-23T17:40:46.458Z,18.87
2019-03-23T17:43:14.872Z,15.10
2019-03-23T17:45:43.327Z,15.95
2019-03-23T17:48:11.778Z,11.70
2019-03-23T17:50:40.477Z,19.27
2019-03-23T17:53:08.929Z,14.47
2019-03-23T17:55:37.356Z,14.33
2019-03-23T17:58:05.883Z,16.45
2019-03-23T18:00:34.301Z,16.10
2019-03-23T18:03:02.810Z,17.98
2019-03-23T18:05:31.261Z,13.00
2019-03-23T18:08:00.044Z,14.40
2019-03-23T18:10:28.469Z,15.88
2019-03-23T18:12:56.911Z,18.82
2019-03-23T18:15:25.368Z,13.55
2019-03-23T18:17:53.817Z,15.55
2019-03-23T18:20:22.241Z,21.85
2019-03-23T18:22:50.677Z,16.00
2019-03-23T18:25:19.101Z,18.50
2019-03-23T18:27:47.552Z,15.35
2019-03-23T18:30:37.100Z,19.20
2019-03-23T18:33:05.977Z,16.93
2019-03-23T18:35:34.577Z,19.37
2019-03-23T18:38:03.315Z,16.65
2019-03-23T18:40:33.161Z,16.93
2019-03-23T18:43:01.605Z,17.30
2019-03-23T18:45:30.033Z,18.95
2019-03-23T18:47:58.471Z,19.77
2019-03-23T18:50:26.925Z,18.02
2019-03-23T18:52:55.346Z,16.10
2019-03-23T18:55:23.780Z,20.55
2019-03-23T18:57:52.218Z,22.10
2019-03-23T19:00:34.808Z,20.10
2019-03-23T19:03:03.877Z,18.50
2019-03-23T19:05:32.318Z,19.30
2019-03-23T19:08:00.760Z,18.23
2019-03-23T19:10:30.181Z,22.07
2019-03-23T19:12:58.617Z,19.35
2019-03-23T19:15:27.086Z,17.27
2019-03-23T19:17:55.500Z,15.50
2019-03-23T19:20:23.931Z,19.77
2019-03-23T19:22:52.377Z,20.43
2019-03-23T19:25:20.805Z,18.35
2019-03-23T19:27:49.451Z,20.15
2019-03-23T19:30:19.083Z,21.47
2019-03-23T19:32:47.518Z,22.73
2019-03-23T19:35:15.977Z,18.95
2019-03-23T19:37:44.409Z,17.67
2019-03-23T19:40:13.283Z,22.37
2019-03-23T19:42:41.714Z,21.05
2019-03-23T19:45:10.622Z,20.90
2019-03-23T19:47:39.061Z,22.07
2019-03-23T19:50:09.123Z,25.37
2019-03-23T19:52:37.548Z,18.05
2019-03-23T19:55:07.991Z,21.33
2019-03-23T19:57:36.432Z,20.10
2019-03-23T20:00:09.627Z,22.30
2019-03-23T20:02:38.338Z,22.37
2019-03-23T20:05:07.109Z,26.27
2019-03-23T20:07:35.537Z,22.80
2019-03-23T20:10:05.720Z,22.62
2019-03-23T20:12:34.151Z,21.48
2019-03-23T20:15:02.580Z,19.90
2019-03-23T20:17:31.010Z,21.40
2019-03-23T20:19:59.433Z,22.70
2019-03-23T20:22:27.866Z,28.20
2019-03-23T20:24:56.301Z,22.48
2019-03-23T20:27:24.744Z,20.43
2019-03-23T20:29:53.173Z,24.10
2019-03-23T20:32:21.605Z,27.10
2019-03-23T20:34:51.013Z,19.23
2019-03-23T20:37:19.470Z,24.03
2019-03-23T20:39:47.898Z,24.32
2019-03-23T20:42:16.335Z,24.47
2019-03-23T20:44:44.761Z,25.85
2019-03-23T20:47:13.744Z,22.77
2019-03-23T20:49:42.260Z,21.27
2019-03-23T20:52:10.770Z,23.15
2019-03-23T20:54:39.297Z,25.12
2019-03-23T20:57:07.729Z,23.42
2019-03-23T20:59:36.156Z,21.02
2019-03-23T21:02:04.630Z,28.00
2019-03-23T21:04:33.135Z,24.18
2019-03-23T21:07:01.642Z,25.08
2019-03-23T21:09:30.076Z,24.67
2019-03-23T21:11:58.504Z,24.92
2019-03-23T21:14:26.937Z,28.10
2019-03-23T21:16:55.372Z,22.75
2019-03-23T21:19:23.810Z,23.87
2019-03-23T21:21:52.254Z,23.12
2019-03-23T21:24:20.680Z,25.02
2019-03-23T21:26:49.131Z,30.60
2019-03-23T21:29:17.574Z,23.50
2019-03-23T21:31:46.042Z,26.90
2019-03-23T21:34:14.552Z,25.37
2019-03-23T21:36:43.009Z,23.67
2019-03-23T21:39:11.501Z,22.48
2019-03-23T21:41:39.950Z,23.42
2019-03-23T21:44:08.421Z,25.10
2019-03-23T21:46:36.840Z,27.62
2019-03-23T21:49:05.796Z,29.40
2019-03-23T21:51:34.225Z,24.85
2019-03-23T21:54:02.668Z,22.13
2019-03-23T21:56:31.105Z,23.92
2019-03-23T21:58:59.536Z,27.82
2019-03-23T22:01:28.017Z,25.12
2019-03-23T22:03:56.493Z,21.77
2019-03-23T22:06:24.945Z,24.90
2019-03-23T22:08:53.394Z,25.52
2019-03-23T22:11:21.831Z,26.55
2019-03-23T22:13:50.250Z,20.90
2019-03-23T22:16:18.689Z,25.25
2019-03-23T22:18:47.170Z,26.95
2019-03-23T22:21:15.584Z,29.00
2019-03-23T22:23:44.045Z,26.17
2019-03-23T22:26:12.466Z,26.62
2019-03-23T22:28:40.930Z,24.35
2019-03-23T22:31:09.359Z,23.30
2019-03-23T22:33:37.796Z,24.80
2019-03-23T22:36:06.243Z,26.52
2019-03-23T22:38:34.716Z,31.80
2019-03-23T22:41:03.129Z,23.35
2019-03-23T22:43:31.553Z,23.30
2019-03-23T22:46:02.513Z,24.20
2019-03-23T22:48:30.968Z,27.67
2019-03-23T22:50:59.385Z,23.87
2019-03-23T22:53:27.810Z,20.65
2019-03-23T22:55:56.253Z,26.10
2019-03-23T22:58:24.705Z,19.55
2019-03-23T23:00:54.274Z,23.65
2019-03-23T23:03:22.701Z,22.60
2019-03-23T23:05:51.151Z,25.60
2019-03-23T23:08:19.835Z,29.67
2019-03-23T23:10:48.276Z,25.48
2019-03-23T23:13:16.707Z,25.23
2019-03-23T23:15:45.145Z,30.48
2019-03-23T23:18:13.585Z,26.52
2019-03-23T23:20:42.062Z,26.23
2019-03-23T23:23:10.494Z,30.77
2019-03-23T23:25:38.941Z,26.65
2019-03-23T23:28:07.392Z,24.27
2019-03-23T23:30:36.096Z,30.02
2019-03-23T23:33:04.594Z,22.85
2019-03-23T23:35:33.044Z,23.80
2019-03-23T23:38:01.470Z,22.60
2019-03-23T23:40:30.196Z,28.53
2019-03-23T23:42:58.622Z,27.05
2019-03-23T23:45:27.072Z,25.50
2019-03-23T23:47:55.502Z,27.53
2019-03-23T23:50:23.934Z,23.17
2019-03-23T23:52:52.353Z,23.35
2019-03-23T23:55:20.789Z,28.25
2019-03-23T23:57:49.229Z,27.27
